createdAt,value
2019-01-31T00:02:27.234Z,98862.07
2019-01-31T00:05:45.236Z,98864.22
2019-01-31T00:09:29.815Z,98862.92
2019-01-31T00:12:54.040Z,98856.91
2019-01-31T00:16:09.216Z,98864.23
2019-01-31T00:19:26.170Z,98871.12
2019-01-31T00:23:24.409Z,98867.23
2019-01-31T00:27:12.642Z,98861.66
2019-01-31T00:30:53.221Z,98874.53
2019-01-31T00:34:20.080Z,98878.02
2019-01-31T00:37:35.044Z,98880.98
2019-01-31T00:40:58.346Z,98877.98
2019-01-31T00:44:16.170Z,98880.11
2019-01-31T00:47:37.789Z,98884.88
2019-01-31T00:50:37.941Z,98884.47
2019-01-31T00:53:59.504Z,98881.88
2019-01-31T00:56:50.483Z,98885.29
2019-01-31T01:00:24.428Z,98884.43
2019-01-31T01:03:31.852Z,98893.06
2019-01-31T01:06:58.879Z,98894.77
2019-01-31T01:10:02.178Z,98901.23
2019-01-31T01:13:44.433Z,98897.80
2019-01-31T01:16:40.829Z,98899.95
2019-01-31T01:20:02.309Z,98911.14
2019-01-31T01:23:35.542Z,98911.59
2019-01-31T01:26:52.471Z,98912.86
2019-01-31T01:29:40.956Z,98918.04
2019-01-31T01:32:49.046Z,98912.89
2019-01-31T01:36:13.009Z,98915.52
2019-01-31T01:39:56.655Z,98924.56
2019-01-31T01:43:24.340Z,98928.87
2019-01-31T01:46:45.841Z,98926.30
2019-01-31T01:49:59.779Z,98923.74
2019-01-31T01:53:15.547Z,98935.80
2019-01-31T01:56:30.672Z,98934.52
2019-01-31T02:00:07.805Z,98934.94
2019-01-31T02:03:42.137Z,98932.37
2019-01-31T02:06:38.694Z,98934.51
2019-01-31T02:09:59.024Z,98941.39
2019-01-31T02:13:34.748Z,98938.38
2019-01-31T02:16:51.567Z,98946.97
2019-01-31T02:20:20.409Z,98947.38
2019-01-31T02:23:14.352Z,98943.95
2019-01-31T02:27:15.682Z,98943.95
2019-01-31T02:30:39.350Z,98941.80
2019-01-31T02:33:41.911Z,98935.36
2019-01-31T02:36:54.036Z,98933.66
2019-01-31T02:40:28.801Z,98939.66
2019-01-31T02:43:18.168Z,98941.37
2019-01-31T02:46:29.894Z,98942.66
2019-01-31T02:50:14.094Z,98943.52
2019-01-31T02:53:43.743Z,98948.23
2019-01-31T02:57:24.755Z,98941.76
2019-01-31T03:00:37.680Z,98950.34
2019-01-31T03:03:53.725Z,98944.30
2019-01-31T03:07:33.624Z,98945.16
2019-01-31T03:11:07.045Z,98951.10
2019-01-31T03:14:10.165Z,98951.48
2019-01-31T03:17:14.886Z,98948.88
2019-01-31T03:20:39.510Z,98952.28
2019-01-31T03:24:10.568Z,98946.27
2019-01-31T03:27:22.550Z,98945.80
2019-01-31T03:30:41.300Z,98946.22
2019-01-31T03:33:52.711Z,98962.05
2019-01-31T03:37:28.687Z,98961.25
2019-01-31T03:41:01.962Z,98968.61
2019-01-31T03:44:50.220Z,98966.47
2019-01-31T03:48:32.707Z,98974.12
2019-01-31T03:52:02.279Z,98974.13
2019-01-31T03:55:42.790Z,98970.27
2019-01-31T03:58:52.271Z,98977.20
2019-01-31T04:02:01.575Z,98980.17
2019-01-31T04:05:16.191Z,98990.13
2019-01-31T04:07:47.656Z,98991.81
2019-01-31T04:10:19.406Z,98990.07
2019-01-31T04:12:50.890Z,98995.63
2019-01-31T04:15:22.186Z,98993.34
2019-01-31T04:17:54.120Z,98994.69
2019-01-31T04:20:25.677Z,98996.40
2019-01-31T04:22:57.285Z,99003.26
2019-01-31T04:25:29.009Z,99003.70
2019-01-31T04:28:00.433Z,99010.50
2019-01-31T04:30:32.106Z,99009.23
2019-01-31T04:33:03.675Z,99012.98
2019-01-31T04:35:35.233Z,99012.13
2019-01-31T04:38:06.548Z,99016.89
2019-01-31T04:40:38.182Z,99016.52
2019-01-31T04:43:09.931Z,99020.80
2019-01-31T04:45:41.577Z,99019.55
2019-01-31T04:48:13.206Z,99028.14
2019-01-31T04:50:45.663Z,99019.16
2019-01-31T04:53:17.714Z,99026.47
2019-01-31T04:55:49.707Z,99026.09
2019-01-31T04:58:21.288Z,99025.22
2019-01-31T05:00:52.891Z,99026.53
2019-01-31T05:03:24.817Z,99028.66
2019-01-31T05:05:56.595Z,99032.59
2019-01-31T05:08:30.877Z,99030.02
2019-01-31T05:11:01.701Z,99033.03
2019-01-31T05:13:33.065Z,99039.48
2019-01-31T05:16:04.702Z,99031.37
2019-01-31T05:18:37.486Z,99038.22
2019-01-31T05:21:09.806Z,99036.94
2019-01-31T05:23:41.677Z,99030.98
2019-01-31T05:26:13.953Z,99037.02
2019-01-31T05:28:46.057Z,99033.16
2019-01-31T05:31:17.446Z,99033.16
2019-01-31T05:33:49.899Z,99037.06
2019-01-31T05:36:21.323Z,99042.64
2019-01-31T05:38:52.998Z,99037.08
2019-01-31T05:41:24.632Z,99041.81
2019-01-31T05:43:55.951Z,99039.66
2019-01-31T05:46:27.559Z,99043.11
2019-01-31T05:48:59.327Z,99040.53
2019-01-31T05:51:30.706Z,99040.95
2019-01-31T05:54:02.036Z,99043.09
2019-01-31T05:56:33.294Z,99036.23
2019-01-31T05:59:05.834Z,99036.68
2019-01-31T06:01:37.368Z,99040.55
2019-01-31T06:04:08.684Z,99043.09
2019-01-31T06:06:40.379Z,99043.09
2019-01-31T06:09:12.523Z,99040.97
2019-01-31T06:11:43.876Z,99044.81
2019-01-31T06:14:15.334Z,99042.24
2019-01-31T06:16:46.944Z,99044.81
2019-01-31T06:19:18.299Z,99043.95
2019-01-31T06:21:50.082Z,99050.38
2019-01-31T06:24:21.395Z,99051.67
2019-01-31T06:26:52.847Z,99063.27
2019-01-31T06:29:24.474Z,99064.10
2019-01-31T06:31:56.110Z,99062.83
2019-01-31T06:34:27.444Z,99065.83
2019-01-31T06:36:58.756Z,99071.84
2019-01-31T06:39:30.724Z,99071.86
2019-01-31T06:42:02.551Z,99077.44
2019-01-31T06:44:33.883Z,99082.15
2019-01-31T06:47:05.547Z,99083.45
2019-01-31T06:49:37.598Z,99082.59
2019-01-31T06:52:09.252Z,99082.16
2019-01-31T06:54:40.639Z,99088.18
2019-01-31T06:57:11.912Z,99085.61
2019-01-31T06:59:43.269Z,99089.48
2019-01-31T07:02:14.802Z,99089.48
2019-01-31T07:04:46.269Z,99089.95
2019-01-31T07:07:19.242Z,99098.08
2019-01-31T07:09:50.682Z,99102.39
2019-01-31T07:12:22.413Z,99107.12
2019-01-31T07:14:53.789Z,99106.69
2019-01-31T07:17:25.490Z,99114.84
2019-01-31T07:19:56.806Z,99122.55
2019-01-31T07:22:28.686Z,99118.70
2019-01-31T07:25:00.413Z,99124.70
2019-01-31T07:27:32.482Z,99117.41
2019-01-31T07:30:05.524Z,99122.10
2019-01-31T07:32:37.224Z,99131.56
2019-01-31T07:35:10.831Z,99127.25
2019-01-31T07:37:42.243Z,99135.00
2019-01-31T07:40:15.935Z,99134.15
2019-01-31T07:42:47.681Z,99139.32
2019-01-31T07:45:30.947Z,99136.30
2019-01-31T07:48:02.706Z,99134.15
2019-01-31T07:50:34.015Z,99144.89
2019-01-31T07:53:05.500Z,99147.03
2019-01-31T07:55:36.820Z,99152.19
2019-01-31T07:58:08.456Z,99153.92
2019-01-31T08:00:39.827Z,99150.06
2019-01-31T08:03:11.131Z,99143.62
2019-01-31T08:05:42.413Z,99147.06
2019-01-31T08:08:13.745Z,99149.64
2019-01-31T08:10:45.694Z,99145.78
2019-01-31T08:13:17.098Z,99147.06
2019-01-31T08:15:49.458Z,99146.64
2019-01-31T08:18:21.365Z,99156.97
2019-01-31T08:20:52.818Z,99159.98
2019-01-31T08:23:24.249Z,99159.12
2019-01-31T08:25:55.914Z,99155.70
2019-01-31T08:28:27.319Z,99161.30
2019-01-31T08:30:59.081Z,99162.14
2019-01-31T08:33:30.367Z,99161.71
2019-01-31T08:36:01.947Z,99172.02
2019-01-31T08:38:36.594Z,99165.60
2019-01-31T08:41:06.568Z,99168.61
2019-01-31T08:43:38.215Z,99169.05
2019-01-31T08:46:09.683Z,99167.34
2019-01-31T08:48:41.782Z,99169.06
2019-01-31T08:51:13.136Z,99178.52
2019-01-31T08:53:44.513Z,99172.55
2019-01-31T08:56:15.813Z,99172.55
2019-01-31T08:58:47.782Z,99173.39
2019-01-31T09:01:19.213Z,99174.69
2019-01-31T09:03:51.201Z,99177.27
2019-01-31T09:06:22.535Z,99170.84
2019-01-31T09:08:53.931Z,99182.88
2019-01-31T09:11:25.202Z,99187.19
2019-01-31T09:13:56.467Z,99188.41
2019-01-31T09:16:28.349Z,99187.97
2019-01-31T09:19:00.269Z,99186.61
2019-01-31T09:22:19.359Z,99185.73
2019-01-31T09:25:26.985Z,99186.08
2019-01-31T09:28:54.161Z,99187.23
2019-01-31T09:32:37.979Z,99189.80
2019-01-31T09:35:44.104Z,99198.54
2019-01-31T09:39:20.456Z,99198.12
2019-01-31T09:42:28.291Z,99197.55
2019-01-31T09:45:31.885Z,99202.59
2019-01-31T09:48:34.408Z,99202.98
2019-01-31T09:52:05.731Z,99200.63
2019-01-31T09:55:35.821Z,99212.22
2019-01-31T09:58:55.868Z,99206.42
2019-01-31T10:02:21.931Z,99204.12
2019-01-31T10:06:00.786Z,99196.45
2019-01-31T10:09:27.807Z,99206.33
2019-01-31T10:12:38.411Z,99208.73
2019-01-31T10:15:55.181Z,99209.28
2019-01-31T10:19:17.599Z,99217.94
2019-01-31T10:22:41.444Z,99210.02
2019-01-31T10:25:52.998Z,99207.48
2019-01-31T10:29:25.322Z,99206.30
2019-01-31T10:33:02.283Z,99209.70
2019-01-31T10:36:51.543Z,99209.19
2019-01-31T10:40:22.178Z,99204.84
2019-01-31T10:43:56.469Z,99203.38
2019-01-31T10:47:14.225Z,99202.65
2019-01-31T10:53:29.389Z,99194.80
2019-01-31T10:56:46.935Z,99190.38
2019-01-31T11:00:33.362Z,99186.28
2019-01-31T11:03:37.165Z,99180.30
2019-01-31T11:07:11.752Z,99191.55
2019-01-31T11:10:32.605Z,99189.89
2019-01-31T11:14:33.640Z,99185.56
2019-01-31T11:18:03.933Z,99187.35
2019-01-31T11:21:44.214Z,99176.64
2019-01-31T11:25:11.605Z,99173.64
2019-01-31T11:28:15.017Z,99170.20
2019-01-31T11:31:27.985Z,99173.49
2019-01-31T11:34:48.824Z,99172.56
2019-01-31T11:38:31.890Z,99173.02
2019-01-31T11:41:54.921Z,99172.63
2019-01-31T11:45:21.072Z,99164.17
2019-01-31T11:48:39.132Z,99166.30
2019-01-31T11:52:26.962Z,99157.45
2019-01-31T11:55:56.332Z,99154.56
2019-01-31T11:59:01.527Z,99150.97
2019-01-31T12:01:33.297Z,99154.22
2019-01-31T12:04:17.369Z,99146.47
2019-01-31T12:06:49.273Z,99144.30
2019-01-31T12:09:22.397Z,99140.91
2019-01-31T12:11:54.015Z,99148.97
2019-01-31T12:14:25.298Z,99144.09
2019-01-31T12:16:56.921Z,99132.89
2019-01-31T12:19:28.782Z,99137.95
2019-01-31T12:22:00.085Z,99135.56
2019-01-31T12:24:34.183Z,99126.86
2019-01-31T12:27:05.632Z,99130.73
2019-01-31T12:29:37.639Z,99125.74
2019-01-31T12:32:08.940Z,99128.16
2019-01-31T12:34:43.090Z,99124.74
2019-01-31T12:37:13.405Z,99120.80
2019-01-31T12:39:44.697Z,99123.77
2019-01-31T12:42:16.008Z,99119.86
2019-01-31T12:44:47.578Z,99115.42
2019-01-31T12:47:18.969Z,99117.06
2019-01-31T12:49:50.336Z,99121.39
2019-01-31T12:52:21.638Z,99113.15
2019-01-31T12:54:53.141Z,99120.95
2019-01-31T12:57:24.408Z,99114.88
2019-01-31T12:59:56.252Z,99112.28
2019-01-31T13:02:27.628Z,99118.56
2019-01-31T13:04:59.231Z,99117.84
2019-01-31T13:07:31.119Z,99115.05
2019-01-31T13:10:02.467Z,99109.14
2019-01-31T13:12:34.103Z,99111.48
2019-01-31T13:15:05.986Z,99105.92
2019-01-31T13:17:38.049Z,99105.45
2019-01-31T13:20:15.348Z,99111.52
2019-01-31T13:22:47.142Z,99110.06
2019-01-31T13:25:19.261Z,99108.53
2019-01-31T13:27:50.617Z,99111.17
2019-01-31T13:30:22.783Z,99112.80
2019-01-31T13:32:55.540Z,99113.77
2019-01-31T13:35:26.822Z,99108.66
2019-01-31T13:37:58.046Z,99109.05
2019-01-31T13:40:29.674Z,99108.63
2019-01-31T13:43:02.451Z,99107.88
2019-01-31T13:45:36.853Z,99106.72
2019-01-31T13:48:18.273Z,99101.14
2019-01-31T13:50:50.057Z,99108.32
2019-01-31T13:53:21.328Z,99108.97
2019-01-31T13:55:53.373Z,99108.02
2019-01-31T13:58:25.049Z,99106.06
2019-01-31T14:00:56.983Z,99102.22
2019-01-31T14:03:29.597Z,99112.66
2019-01-31T14:06:02.148Z,99109.72
2019-01-31T14:08:34.885Z,99117.49
2019-01-31T14:11:06.365Z,99111.95
2019-01-31T14:13:37.631Z,99117.09
2019-01-31T14:16:08.912Z,99113.64
2019-01-31T14:18:41.284Z,99112.03
2019-01-31T14:21:12.807Z,99105.19
2019-01-31T14:23:44.351Z,99107.28
2019-01-31T14:26:16.334Z,99112.97
2019-01-31T14:28:48.055Z,99108.31
2019-01-31T14:31:19.406Z,99106.09
2019-01-31T14:33:51.019Z,99104.00
2019-01-31T14:36:22.660Z,99104.94
2019-01-31T14:38:53.999Z,99106.23
2019-01-31T14:41:25.656Z,99096.34
2019-01-31T14:43:57.289Z,99103.34
2019-01-31T14:46:28.740Z,99105.90
2019-01-31T14:49:02.300Z,99108.13
2019-01-31T14:51:32.942Z,99107.72
2019-01-31T14:54:07.093Z,99106.00
2019-01-31T14:56:38.471Z,99108.65
2019-01-31T14:59:09.691Z,99107.02
2019-01-31T15:01:40.962Z,99106.64
2019-01-31T15:04:12.334Z,99110.95
2019-01-31T15:06:44.106Z,99106.27
2019-01-31T15:09:17.459Z,99111.47
2019-01-31T15:11:51.601Z,99109.42
2019-01-31T15:14:31.488Z,99117.30
2019-01-31T15:16:55.871Z,99114.76
2019-01-31T15:19:27.465Z,99119.09
2019-01-31T15:21:58.807Z,99119.21
2019-01-31T15:24:30.267Z,99111.91
2019-01-31T15:27:04.596Z,99113.25
2019-01-31T15:29:35.865Z,99117.15
2019-01-31T15:32:07.321Z,99118.09
2019-01-31T15:34:38.885Z,99119.00
2019-01-31T15:37:10.099Z,99120.33
2019-01-31T15:39:41.362Z,99120.78
2019-01-31T15:42:12.786Z,99114.33
2019-01-31T15:44:44.326Z,99112.65
2019-01-31T15:47:15.628Z,99120.38
2019-01-31T15:49:46.951Z,99121.27
2019-01-31T15:52:18.552Z,99118.70
2019-01-31T15:54:49.779Z,99134.20
2019-01-31T15:57:21.271Z,99126.52
2019-01-31T15:59:52.860Z,99123.94
2019-01-31T16:02:24.092Z,99128.24
2019-01-31T16:04:57.041Z,99126.52
2019-01-31T16:07:28.631Z,99121.36
2019-01-31T16:09:59.977Z,99125.25
2019-01-31T16:12:31.616Z,99123.96
2019-01-31T16:15:03.084Z,99127.40
2019-01-31T16:17:34.658Z,99128.72
2019-01-31T16:20:07.108Z,99132.13
2019-01-31T16:22:38.466Z,99130.42
2019-01-31T16:25:09.705Z,99134.29
2019-01-31T16:27:41.158Z,99133.42
2019-01-31T16:30:14.705Z,99122.66
2019-01-31T16:32:46.182Z,99124.39
2019-01-31T16:35:17.636Z,99127.38
2019-01-31T16:37:49.596Z,99121.35
2019-01-31T16:40:21.143Z,99127.38
2019-01-31T16:42:52.445Z,99121.34
2019-01-31T16:45:24.122Z,99120.48
2019-01-31T16:47:56.788Z,99129.06
2019-01-31T16:50:28.856Z,99129.91
2019-01-31T16:53:00.111Z,99123.42
2019-01-31T16:55:31.443Z,99125.56
2019-01-31T16:58:03.011Z,99120.41
2019-01-31T17:00:34.405Z,99121.69
2019-01-31T17:03:09.338Z,99124.66
2019-01-31T17:05:40.674Z,99122.07
2019-01-31T17:08:15.080Z,99118.64
2019-01-31T17:10:47.085Z,99124.19
2019-01-31T17:13:18.438Z,99126.33
2019-01-31T17:15:50.198Z,99127.58
2019-01-31T17:18:21.471Z,99120.27
2019-01-31T17:20:53.171Z,99115.55
2019-01-31T17:23:27.201Z,99112.48
2019-01-31T17:25:58.622Z,99117.17
2019-01-31T17:28:30.633Z,99119.27
2019-01-31T17:31:02.187Z,99114.98
2019-01-31T17:33:34.978Z,99109.84
2019-01-31T17:36:07.328Z,99103.81
2019-01-31T17:38:38.824Z,99105.06
2019-01-31T17:41:10.222Z,99104.16
2019-01-31T17:43:41.951Z,99106.28
2019-01-31T17:46:15.658Z,99102.78
2019-01-31T17:48:47.570Z,99106.63
2019-01-31T17:51:19.189Z,99106.21
2019-01-31T17:53:50.852Z,99099.36
2019-01-31T17:56:24.222Z,99103.17
2019-01-31T17:58:55.947Z,99104.46
2019-01-31T18:01:27.254Z,99101.42
2019-01-31T18:03:58.843Z,99104.41
2019-01-31T18:06:30.167Z,99102.67
2019-01-31T18:09:02.383Z,99103.97
2019-01-31T18:11:33.783Z,99096.27
2019-01-31T18:14:05.832Z,99096.67
2019-01-31T18:16:38.854Z,99099.20
2019-01-31T18:19:12.853Z,99087.22
2019-01-31T18:21:44.140Z,99079.49
2019-01-31T18:24:19.364Z,99088.93
2019-01-31T18:26:50.990Z,99085.47
2019-01-31T18:29:22.629Z,99085.08
2019-01-31T18:31:54.127Z,99079.07
2019-01-31T18:34:25.846Z,99082.04
2019-01-31T18:37:00.107Z,99084.19
2019-01-31T18:39:31.448Z,99083.30
2019-01-31T18:42:02.683Z,99087.98
2019-01-31T18:44:34.091Z,99083.67
2019-01-31T18:47:05.663Z,99088.41
2019-01-31T18:49:36.917Z,99089.65
2019-01-31T18:52:08.962Z,99084.09
2019-01-31T18:54:43.177Z,99081.84
2019-01-31T18:57:14.835Z,99088.66
2019-01-31T18:59:47.185Z,99085.20
2019-01-31T19:02:20.494Z,99090.31
2019-01-31T19:04:54.357Z,99085.18
2019-01-31T19:07:26.329Z,99086.88
2019-01-31T19:10:00.334Z,99087.27
2019-01-31T19:12:31.555Z,99084.70
2019-01-31T19:15:02.911Z,99084.68
2019-01-31T19:17:34.273Z,99090.69
2019-01-31T19:20:09.998Z,99087.27
2019-01-31T19:22:41.352Z,99088.58
2019-01-31T19:25:13.287Z,99094.09
2019-01-31T19:27:44.632Z,99088.06
2019-01-31T19:30:23.293Z,99085.52
2019-01-31T19:32:54.871Z,99086.36
2019-01-31T19:35:26.561Z,99084.63
2019-01-31T19:38:02.137Z,99089.30
2019-01-31T19:40:34.696Z,99078.99
2019-01-31T19:43:07.463Z,99083.17
2019-01-31T19:45:48.088Z,99080.19
2019-01-31T19:48:19.802Z,99084.05
2019-01-31T19:50:51.135Z,99086.64
2019-01-31T19:53:22.485Z,99082.73
2019-01-31T19:55:53.749Z,99083.12
2019-01-31T19:58:25.022Z,99073.72
2019-01-31T20:00:57.266Z,99075.89
2019-01-31T20:03:28.554Z,99067.27
2019-01-31T20:06:00.315Z,99070.22
2019-01-31T20:08:32.230Z,99063.33
2019-01-31T20:11:03.523Z,99075.30
2019-01-31T20:13:34.760Z,99068.83
2019-01-31T20:16:06.243Z,99062.31
2019-01-31T20:18:39.513Z,99070.05
2019-01-31T20:21:11.445Z,99065.75
2019-01-31T20:23:42.910Z,99066.67
2019-01-31T20:26:14.521Z,99063.63
2019-01-31T20:28:48.944Z,99066.16
2019-01-31T20:31:20.257Z,99061.41
2019-01-31T20:33:51.974Z,99067.39
2019-01-31T20:36:23.226Z,99057.92
2019-01-31T20:38:54.539Z,99054.91
2019-01-31T20:41:27.541Z,99053.97
2019-01-31T20:43:59.167Z,99056.06
2019-01-31T20:46:39.684Z,99053.49
2019-01-31T20:49:03.812Z,99055.61
2019-01-31T20:51:38.809Z,99055.16
2019-01-31T20:54:10.213Z,99050.51
2019-01-31T20:56:42.548Z,99059.45
2019-01-31T20:59:14.115Z,99055.92
2019-01-31T21:01:45.505Z,99065.39
2019-01-31T21:04:16.861Z,99062.75
2019-01-31T21:06:48.112Z,99055.85
2019-01-31T21:09:19.394Z,99055.85
2019-01-31T21:11:50.742Z,99064.37
2019-01-31T21:14:21.982Z,99052.80
2019-01-31T21:16:53.292Z,99055.78
2019-01-31T21:19:24.894Z,99051.03
2019-01-31T21:21:56.190Z,99050.99
2019-01-31T21:24:27.767Z,99044.96
2019-01-31T21:26:59.092Z,99043.68
2019-01-31T21:29:30.426Z,99041.50
2019-01-31T21:32:02.395Z,99041.91
2019-01-31T21:34:37.418Z,99041.11
2019-01-31T21:37:08.696Z,99036.33
2019-01-31T21:39:40.318Z,99038.44
2019-01-31T21:42:11.575Z,99034.94
2019-01-31T21:44:42.839Z,99035.95
2019-01-31T21:47:15.069Z,99032.41
2019-01-31T21:49:46.462Z,99023.40
2019-01-31T21:52:17.804Z,99030.19
2019-01-31T21:54:49.492Z,99028.00
2019-01-31T21:57:21.517Z,99023.77
2019-01-31T21:59:52.788Z,99025.47
2019-01-31T22:02:24.489Z,99028.41
2019-01-31T22:04:55.925Z,99028.83
2019-01-31T22:07:27.231Z,99023.20
2019-01-31T22:09:58.892Z,99019.74
2019-01-31T22:12:31.300Z,99019.33
2019-01-31T22:15:02.680Z,99016.80
2019-01-31T22:17:34.488Z,99017.14
2019-01-31T22:20:06.111Z,99014.20
2019-01-31T22:22:37.795Z,99006.05
2019-01-31T22:25:11.392Z,99005.16
2019-01-31T22:27:42.655Z,98999.57
2019-01-31T22:30:27.459Z,98998.29
2019-01-31T22:32:59.049Z,98996.55
2019-01-31T22:35:30.447Z,98995.73
2019-01-31T22:38:02.210Z,98998.29
2019-01-31T22:40:33.614Z,98998.70
2019-01-31T22:43:05.188Z,98990.97
2019-01-31T22:45:36.534Z,98995.65
2019-01-31T22:48:09.378Z,98996.55
2019-01-31T22:50:41.104Z,98991.77
2019-01-31T22:53:12.489Z,98988.45
2019-01-31T22:55:44.139Z,98993.66
2019-01-31T22:58:15.969Z,98994.48
2019-01-31T23:01:41.806Z,98991.05
2019-01-31T23:04:16.414Z,98985.93
2019-01-31T23:06:47.880Z,98983.82
2019-01-31T23:09:19.313Z,98982.13
2019-01-31T23:11:52.114Z,98985.17
2019-01-31T23:14:23.530Z,98979.63
2019-01-31T23:16:55.212Z,98975.75
2019-01-31T23:19:27.328Z,98973.19
2019-01-31T23:21:58.880Z,98974.02
2019-01-31T23:24:30.199Z,98971.45
2019-01-31T23:27:01.808Z,98965.05
2019-01-31T23:29:33.880Z,98960.75
2019-01-31T23:32:07.542Z,98958.23
2019-01-31T23:34:39.697Z,98948.39
2019-01-31T23:37:11.098Z,98939.91
2019-01-31T23:39:42.841Z,98941.19
2019-01-31T23:42:14.757Z,98929.62
2019-01-31T23:44:46.195Z,98923.21
2019-01-31T23:47:17.612Z,98911.67
2019-01-31T23:49:49.898Z,98915.14
2019-01-31T23:52:21.260Z,98914.23
2019-01-31T23:54:52.948Z,98914.66
2019-01-31T23:57:24.454Z,98914.20
2019-01-31T23:59:56.059Z,98912.58
